Time;durP1;ratioP1;P1;durP2;ratioP2;P2;SDS_P1;SDS_P2;PMS_P1;PMS_P2;Temp;Humidity;BMP_temperature;BMP_pressure;BME280_temperature;BME280_humidity;BME280_pressure;Samples;Min_cycle;Max_cycle;Signal;HPM_P1;HPM_P2
2022/04/09 00:00:09;;;;;;;1.92;0.80;;;;;;;;;;4975037;28;20046;-63
2022/04/09 00:02:36;;;;;;;2.42;0.52;;;;;;;;;;4974488;28;20130;-63
2022/04/09 00:05:05;;;;;;;1.65;0.60;;;;;;;;;;4974644;28;20047;-63
2022/04/09 00:07:32;;;;;;;1.90;0.85;;;;;;;;;;4974140;28;20054;-63
2022/04/09 00:10:00;;;;;;;1.98;0.60;;;;;;;;;;4974570;28;20496;-64
2022/04/09 00:12:27;;;;;;;1.38;0.60;;;;;;;;;;4975017;28;20047;-63
2022/04/09 00:14:54;;;;;;;1.73;0.70;;;;;;;;;;4974334;28;20484;-64
2022/04/09 00:17:21;;;;;;;1.17;0.63;;;;;;;;;;4974927;28;20130;-63
2022/04/09 00:19:48;;;;;;;1.67;0.70;;;;;;;;;;4975074;28;20130;-63
2022/04/09 00:22:16;;;;;;;2.92;0.63;;;;;;;;;;4974743;28;20154;-63
2022/04/09 00:24:43;;;;;;;2.67;0.60;;;;;;;;;;4974649;28;20047;-63
2022/04/09 00:27:12;;;;;;;3.63;0.90;;;;;;;;;;4973695;28;20407;-63
2022/04/09 00:29:39;;;;;;;3.47;1.10;;;;;;;;;;4973547;28;20073;-63
2022/04/09 00:32:07;;;;;;;1.90;0.73;;;;;;;;;;4974267;28;20496;-63
2022/04/09 00:34:34;;;;;;;1.55;0.70;;;;;;;;;;4974101;28;20097;-63
2022/04/09 00:37:01;;;;;;;2.08;0.85;;;;;;;;;;4973485;28;20089;-63
2022/04/09 00:39:28;;;;;;;2.00;0.77;;;;;;;;;;4973675;28;20090;-65
2022/04/09 00:41:55;;;;;;;1.52;0.80;;;;;;;;;;4973914;28;20408;-65
2022/04/09 00:44:24;;;;;;;2.45;1.02;;;;;;;;;;4973481;28;20051;-64
2022/04/09 00:46:51;;;;;;;2.65;0.82;;;;;;;;;;4954113;29;20062;-65
2022/04/09 00:49:18;;;;;;;2.28;0.70;;;;;;;;;;4953917;29;20051;-65
2022/04/09 00:51:46;;;;;;;1.80;0.90;;;;;;;;;;4954215;28;20051;-64
2022/04/09 00:54:15;;;;;;;3.25;1.10;;;;;;;;;;4954581;29;20486;-65
2022/04/09 00:56:43;;;;;;;1.70;0.80;;;;;;;;;;4954060;29;20146;-64
2022/04/09 00:59:11;;;;;;;2.25;0.85;;;;;;;;;;4954092;29;20068;-64
2022/04/09 01:01:41;;;;;;;4.10;1.08;;;;;;;;;;4954208;29;20512;-64
2022/04/09 01:04:09;;;;;;;3.17;0.82;;;;;;;;;;4954096;29;20059;-64
2022/04/09 01:06:36;;;;;;;3.63;0.88;;;;;;;;;;4953347;28;20051;-64
2022/04/09 01:09:05;;;;;;;3.20;1.10;;;;;;;;;;4953495;29;20051;-64
2022/04/09 01:11:32;;;;;;;1.83;0.85;;;;;;;;;;4954012;29;20425;-64
2022/04/09 01:13:59;;;;;;;1.73;0.50;;;;;;;;;;4953867;29;20051;-64
2022/04/09 01:16:28;;;;;;;2.13;0.40;;;;;;;;;;4953663;29;20047;-64
2022/04/09 01:18:57;;;;;;;1.20;0.38;;;;;;;;;;4953739;29;20098;-64
2022/04/09 01:21:25;;;;;;;1.95;0.40;;;;;;;;;;4953873;29;20054;-64
2022/04/09 01:23:54;;;;;;;0.47;0.30;;;;;;;;;;4954082;29;20087;-65
2022/04/09 01:26:21;;;;;;;0.60;0.30;;;;;;;;;;4953745;29;20423;-65
2022/04/09 01:28:48;;;;;;;0.85;0.30;;;;;;;;;;4953617;29;20054;-64
2022/04/09 01:31:15;;;;;;;1.10;0.40;;;;;;;;;;4953527;29;20062;-64
2022/04/09 01:33:42;;;;;;;2.05;0.30;;;;;;;;;;4953514;29;20054;-64
2022/04/09 01:36:09;;;;;;;1.30;0.50;;;;;;;;;;4953956;29;20081;-64
2022/04/09 01:38:37;;;;;;;0.68;0.40;;;;;;;;;;4953514;29;20114;-64
2022/04/09 01:41:05;;;;;;;0.30;0.30;;;;;;;;;;4953529;29;20139;-64
2022/04/09 01:43:32;;;;;;;0.98;0.40;;;;;;;;;;4953469;29;20043;-65
2022/04/09 01:45:59;;;;;;;0.75;0.40;;;;;;;;;;4965894;28;20051;-64
2022/04/09 01:48:26;;;;;;;0.70;0.40;;;;;;;;;;4972710;28;20441;-65
2022/04/09 01:50:53;;;;;;;1.30;0.52;;;;;;;;;;4972657;28;20448;-65
2022/04/09 01:53:20;;;;;;;0.90;0.65;;;;;;;;;;4972813;28;20053;-64
2022/04/09 01:55:47;;;;;;;0.95;0.50;;;;;;;;;;4972789;28;20078;-63
2022/04/09 01:58:15;;;;;;;0.30;0.30;;;;;;;;;;4972572;28;20046;-63
2022/04/09 02:00:42;;;;;;;0.28;0.28;;;;;;;;;;4972401;28;20424;-63
2022/04/09 02:03:09;;;;;;;0.75;0.50;;;;;;;;;;4972782;28;20053;-63
2022/04/09 02:05:36;;;;;;;0.30;0.30;;;;;;;;;;4972676;28;20058;-64
2022/04/09 02:08:04;;;;;;;0.75;0.30;;;;;;;;;;4972441;28;20058;-64
2022/04/09 02:10:32;;;;;;;0.50;0.40;;;;;;;;;;4972479;28;20057;-65
2022/04/09 02:13:01;;;;;;;0.68;0.35;;;;;;;;;;4972784;28;20059;-63
2022/04/09 02:15:29;;;;;;;0.40;0.40;;;;;;;;;;4972586;28;20078;-64
2022/04/09 02:17:56;;;;;;;0.40;0.40;;;;;;;;;;4972431;28;20065;-65
2022/04/09 02:20:23;;;;;;;0.50;0.50;;;;;;;;;;4975965;28;20050;-65
2022/04/09 02:22:50;;;;;;;0.70;0.57;;;;;;;;;;4976016;28;20047;-64
2022/04/09 02:25:18;;;;;;;0.50;0.45;;;;;;;;;;4975882;28;20492;-64
2022/04/09 02:27:45;;;;;;;0.50;0.50;;;;;;;;;;4975774;28;20135;-65
2022/04/09 02:30:14;;;;;;;0.80;0.70;;;;;;;;;;4975892;28;20058;-64
2022/04/09 02:32:48;;;;;;;1.23;0.88;;;;;;;;;;4975755;28;20186;-64
2022/04/09 02:35:16;;;;;;;1.60;1.00;;;;;;;;;;4975916;28;20046;-65
2022/04/09 02:37:43;;;;;;;1.55;1.27;;;;;;;;;;4975921;28;20046;-65
2022/04/09 02:40:11;;;;;;;1.83;1.10;;;;;;;;;;4975598;28;20069;-64
2022/04/09 02:42:39;;;;;;;1.77;1.08;;;;;;;;;;4975623;28;20062;-65
2022/04/09 02:45:07;;;;;;;2.22;1.25;;;;;;;;;;4975471;28;20074;-64
2022/04/09 02:47:34;;;;;;;1.58;1.15;;;;;;;;;;4975504;28;20046;-64
2022/04/09 02:50:04;;;;;;;1.90;1.20;;;;;;;;;;4975316;28;20397;-63
2022/04/09 02:52:34;;;;;;;1.77;1.37;;;;;;;;;;4975563;28;20050;-64
2022/04/09 02:55:01;;;;;;;2.42;1.40;;;;;;;;;;4975658;28;20296;-64
2022/04/09 02:57:28;;;;;;;2.92;1.50;;;;;;;;;;4976290;28;20055;-65
2022/04/09 02:59:56;;;;;;;2.90;1.50;;;;;;;;;;4975381;28;20047;-65
2022/04/09 03:02:23;;;;;;;2.35;1.50;;;;;;;;;;4976087;28;20062;-64
2022/04/09 03:04:51;;;;;;;2.38;1.50;;;;;;;;;;4976391;28;20467;-64
2022/04/09 03:07:20;;;;;;;2.58;1.40;;;;;;;;;;4976454;28;20062;-63
2022/04/09 03:09:47;;;;;;;1.80;1.30;;;;;;;;;;4975076;28;20050;-64
2022/04/09 03:12:14;;;;;;;2.28;1.40;;;;;;;;;;4975422;28;20047;-63
2022/04/09 03:14:41;;;;;;;2.58;1.40;;;;;;;;;;4974881;28;20047;-65
2022/04/09 03:17:07;;;;;;;2.47;1.50;;;;;;;;;;4974827;28;20090;-63
2022/04/09 03:19:34;;;;;;;2.60;1.75;;;;;;;;;;4974919;28;20058;-63
2022/04/09 03:22:01;;;;;;;3.53;1.67;;;;;;;;;;4975038;28;20460;-62
2022/04/09 03:24:30;;;;;;;3.53;1.90;;;;;;;;;;4974977;28;20057;-62
2022/04/09 03:26:56;;;;;;;2.88;1.88;;;;;;;;;;4975396;28;20199;-63
2022/04/09 03:29:23;;;;;;;3.65;2.00;;;;;;;;;;4974976;28;20050;-63
2022/04/09 03:31:50;;;;;;;3.33;1.92;;;;;;;;;;4974143;28;20105;-63
2022/04/09 03:34:18;;;;;;;3.35;1.98;;;;;;;;;;4993391;23;20125;-60
2022/04/09 03:36:44;;;;;;;3.10;1.90;;;;;;;;;;4994564;28;20499;-60
2022/04/09 03:39:11;;;;;;;4.68;2.28;;;;;;;;;;4994617;28;20053;-57
2022/04/09 03:41:40;;;;;;;3.58;2.20;;;;;;;;;;4994620;28;20052;-61
2022/04/09 03:44:07;;;;;;;4.32;2.08;;;;;;;;;;4994735;28;20062;-62
2022/04/09 03:46:34;;;;;;;3.55;2.47;;;;;;;;;;4976984;28;20076;-62
2022/04/09 03:49:01;;;;;;;4.15;2.22;;;;;;;;;;4974531;28;20046;-61
2022/04/09 03:51:27;;;;;;;3.50;2.22;;;;;;;;;;4975146;28;20062;-61
2022/04/09 03:53:54;;;;;;;4.25;2.53;;;;;;;;;;4974649;28;20051;-60
2022/04/09 03:56:22;;;;;;;4.13;2.35;;;;;;;;;;4974733;28;20062;-60
2022/04/09 03:58:51;;;;;;;4.60;2.75;;;;;;;;;;4975247;28;20054;-61
2022/04/09 04:01:17;;;;;;;4.63;2.80;;;;;;;;;;4974627;28;20419;-61
2022/04/09 04:03:45;;;;;;;4.82;2.85;;;;;;;;;;4974643;28;20070;-60
2022/04/09 04:06:11;;;;;;;4.90;2.72;;;;;;;;;;4974350;28;20055;-61
2022/04/09 04:08:38;;;;;;;6.38;3.22;;;;;;;;;;4974533;28;20062;-60
2022/04/09 04:11:06;;;;;;;5.28;3.40;;;;;;;;;;4974427;28;20507;-61
2022/04/09 04:13:35;;;;;;;4.93;2.97;;;;;;;;;;4974635;28;20530;-61
2022/04/09 04:16:04;;;;;;;4.47;2.50;;;;;;;;;;4975038;28;20126;-62
2022/04/09 04:18:31;;;;;;;6.00;3.17;;;;;;;;;;4974134;28;20070;-62
2022/04/09 04:20:58;;;;;;;5.78;2.88;;;;;;;;;;4974494;28;20377;-61
2022/04/09 04:23:25;;;;;;;5.38;3.10;;;;;;;;;;4974269;28;20054;-59
2022/04/09 04:25:52;;;;;;;6.05;3.35;;;;;;;;;;4974062;28;20054;-61
2022/04/09 04:28:19;;;;;;;4.75;2.80;;;;;;;;;;4974305;28;20054;-60
2022/04/09 04:30:46;;;;;;;5.78;3.00;;;;;;;;;;4973834;28;20348;-61
2022/04/09 04:33:14;;;;;;;4.85;2.72;;;;;;;;;;4974244;28;20408;-61
2022/04/09 04:35:41;;;;;;;5.20;3.15;;;;;;;;;;4973993;28;20058;-61
2022/04/09 04:38:08;;;;;;;5.10;2.75;;;;;;;;;;4974027;28;20408;-61
2022/04/09 04:40:35;;;;;;;6.80;3.10;;;;;;;;;;4973885;28;20065;-61
2022/04/09 04:43:02;;;;;;;4.38;2.55;;;;;;;;;;4973975;28;20046;-61
2022/04/09 04:45:29;;;;;;;5.75;2.72;;;;;;;;;;4965214;28;20055;-61
2022/04/09 04:47:57;;;;;;;5.00;2.45;;;;;;;;;;4954708;29;20405;-61
2022/04/09 04:50:26;;;;;;;5.65;3.10;;;;;;;;;;4954690;29;20059;-61
2022/04/09 04:52:53;;;;;;;6.00;3.35;;;;;;;;;;4954652;29;20252;-61
2022/04/09 04:55:22;;;;;;;5.13;2.70;;;;;;;;;;4954345;29;20055;-61
2022/04/09 04:57:50;;;;;;;5.35;3.20;;;;;;;;;;4954113;29;20051;-61
2022/04/09 05:00:20;;;;;;;8.85;3.67;;;;;;;;;;4954327;29;20082;-62
2022/04/09 05:02:47;;;;;;;8.52;4.18;;;;;;;;;;4954263;29;20047;-61
2022/04/09 05:05:14;;;;;;;8.43;3.83;;;;;;;;;;4954378;29;20428;-60
2022/04/09 05:07:43;;;;;;;7.85;3.78;;;;;;;;;;4954384;29;20058;-61
2022/04/09 05:10:13;;;;;;;7.30;3.70;;;;;;;;;;4953984;29;20055;-61
2022/04/09 05:12:40;;;;;;;8.77;3.90;;;;;;;;;;4954461;29;20051;-62
2022/04/09 05:15:09;;;;;;;7.05;3.63;;;;;;;;;;4954484;29;20507;-62
2022/04/09 05:17:36;;;;;;;7.00;3.65;;;;;;;;;;4954159;29;20051;-61
2022/04/09 05:20:03;;;;;;;7.72;4.10;;;;;;;;;;4954256;29;20062;-61
2022/04/09 05:22:31;;;;;;;8.07;3.40;;;;;;;;;;4954610;29;20511;-61
2022/04/09 05:24:59;;;;;;;5.47;3.35;;;;;;;;;;4953880;29;20048;-62
2022/04/09 05:27:27;;;;;;;6.88;3.30;;;;;;;;;;4953938;29;20048;-61
2022/04/09 05:29:53;;;;;;;10.02;3.60;;;;;;;;;;4954189;29;20460;-62
2022/04/09 05:32:20;;;;;;;7.07;3.58;;;;;;;;;;4954193;29;20413;-62
2022/04/09 05:34:47;;;;;;;7.78;3.53;;;;;;;;;;4953142;29;20055;-60
2022/04/09 05:37:14;;;;;;;6.38;3.67;;;;;;;;;;4953081;29;20420;-60
2022/04/09 05:39:42;;;;;;;9.30;4.40;;;;;;;;;;4953218;29;20052;-61
2022/04/09 05:42:11;;;;;;;6.55;3.65;;;;;;;;;;4953757;29;20476;-61
2022/04/09 05:44:38;;;;;;;8.63;4.03;;;;;;;;;;4954490;28;20515;-60
2022/04/09 05:47:05;;;;;;;8.15;4.70;;;;;;;;;;4972497;28;20055;-60
2022/04/09 05:49:32;;;;;;;9.32;4.70;;;;;;;;;;4972419;28;20047;-58
2022/04/09 05:51:59;;;;;;;9.73;4.95;;;;;;;;;;4972857;28;20051;-59
2022/04/09 05:54:26;;;;;;;10.30;6.05;;;;;;;;;;4974772;28;20047;-59
2022/04/09 05:56:53;;;;;;;8.57;4.65;;;;;;;;;;4976139;28;20047;-60
2022/04/09 05:59:21;;;;;;;10.73;5.20;;;;;;;;;;4975923;28;20047;-59
2022/04/09 06:01:48;;;;;;;11.13;6.07;;;;;;;;;;4976154;28;20055;-59
2022/04/09 06:04:19;;;;;;;10.05;5.50;;;;;;;;;;4976225;28;20055;-59
2022/04/09 06:06:46;;;;;;;9.75;5.28;;;;;;;;;;4976394;28;20464;-59
2022/04/09 06:09:13;;;;;;;11.82;6.05;;;;;;;;;;4976065;28;20051;-60
2022/04/09 06:11:41;;;;;;;11.65;6.13;;;;;;;;;;4975812;28;20061;-60
2022/04/09 06:14:09;;;;;;;9.43;5.32;;;;;;;;;;4975754;28;20086;-60
2022/04/09 06:16:38;;;;;;;14.25;6.82;;;;;;;;;;4975703;28;20547;-60
2022/04/09 06:19:06;;;;;;;11.35;6.50;;;;;;;;;;4975857;28;20487;-60
2022/04/09 06:21:33;;;;;;;10.23;5.72;;;;;;;;;;4975440;28;20069;-60
2022/04/09 06:24:00;;;;;;;10.43;5.75;;;;;;;;;;4975171;28;20058;-59
2022/04/09 06:26:28;;;;;;;10.82;5.68;;;;;;;;;;4975267;28;20496;-60
2022/04/09 06:28:55;;;;;;;9.93;5.22;;;;;;;;;;4975299;28;20059;-60
2022/04/09 06:31:22;;;;;;;10.95;5.70;;;;;;;;;;4975212;28;20053;-60
2022/04/09 06:33:50;;;;;;;10.23;5.50;;;;;;;;;;4939722;28;1161769;-60
2022/04/09 06:36:17;;;;;;;10.25;5.85;;;;;;;;;;4986984;28;20081;-59
2022/04/09 06:38:44;;;;;;;10.68;6.07;;;;;;;;;;4976539;28;20057;-60
2022/04/09 06:41:11;;;;;;;10.05;5.50;;;;;;;;;;4976688;28;20062;-59
2022/04/09 06:43:38;;;;;;;9.65;5.38;;;;;;;;;;4976635;28;20062;-60
2022/04/09 06:46:05;;;;;;;8.95;5.10;;;;;;;;;;4976405;28;20058;-60
2022/04/09 06:48:32;;;;;;;11.30;6.05;;;;;;;;;;4976236;28;20055;-59
2022/04/09 06:51:00;;;;;;;10.77;6.32;;;;;;;;;;4976313;28;20061;-59
2022/04/09 06:53:27;;;;;;;12.95;6.13;;;;;;;;;;4976067;28;20059;-60
2022/04/09 06:55:54;;;;;;;12.70;6.43;;;;;;;;;;4976278;28;20396;-61
2022/04/09 06:58:21;;;;;;;10.40;6.07;;;;;;;;;;4976207;28;20522;-62
2022/04/09 07:00:47;;;;;;;12.27;6.43;;;;;;;;;;4975703;28;20055;-60
2022/04/09 07:03:14;;;;;;;10.52;6.18;;;;;;;;;;4975861;28;20054;-59
2022/04/09 07:05:41;;;;;;;12.77;6.57;;;;;;;;;;4974836;28;20054;-58
2022/04/09 07:08:10;;;;;;;11.27;6.43;;;;;;;;;;4975898;28;20069;-61
2022/04/09 07:10:37;;;;;;;13.10;6.18;;;;;;;;;;4975217;28;20407;-60
2022/04/09 07:13:04;;;;;;;11.15;5.90;;;;;;;;;;4975747;28;20415;-59
2022/04/09 07:15:31;;;;;;;11.88;6.22;;;;;;;;;;4975648;28;20065;-61
2022/04/09 07:17:58;;;;;;;11.02;6.03;;;;;;;;;;4975708;28;20055;-60
2022/04/09 07:20:25;;;;;;;15.23;6.25;;;;;;;;;;4976178;28;20137;-60
2022/04/09 07:22:52;;;;;;;10.82;6.35;;;;;;;;;;4975688;28;20055;-60
2022/04/09 07:25:21;;;;;;;10.15;5.50;;;;;;;;;;4975773;28;20058;-59
2022/04/09 07:27:49;;;;;;;9.80;5.35;;;;;;;;;;4970174;28;20504;-60
2022/04/09 07:30:18;;;;;;;12.35;6.53;;;;;;;;;;4960908;28;20090;-60
2022/04/09 07:32:45;;;;;;;11.82;6.90;;;;;;;;;;4956059;29;20493;-60
2022/04/09 07:35:14;;;;;;;12.02;6.53;;;;;;;;;;4956067;29;20055;-60
2022/04/09 07:37:42;;;;;;;12.63;5.82;;;;;;;;;;4956193;29;20505;-61
2022/04/09 07:40:10;;;;;;;12.30;6.32;;;;;;;;;;4956020;29;20056;-60
2022/04/09 07:42:39;;;;;;;10.45;5.50;;;;;;;;;;4956076;29;20120;-60
2022/04/09 07:45:07;;;;;;;10.38;5.88;;;;;;;;;;4956146;29;20055;-60
2022/04/09 07:47:34;;;;;;;11.75;6.68;;;;;;;;;;4955646;29;20051;-60
2022/04/09 07:50:02;;;;;;;15.55;7.45;;;;;;;;;;4956103;29;20481;-60
2022/04/09 07:52:29;;;;;;;11.80;6.30;;;;;;;;;;4955660;29;20063;-60
2022/04/09 07:54:57;;;;;;;16.42;7.28;;;;;;;;;;4955827;29;20066;-59
2022/04/09 07:57:25;;;;;;;15.13;7.97;;;;;;;;;;4955496;29;20059;-60
2022/04/09 07:59:55;;;;;;;13.32;7.32;;;;;;;;;;4955683;29;20066;-61
2022/04/09 08:02:23;;;;;;;14.07;7.85;;;;;;;;;;4955427;29;20051;-61
2022/04/09 08:04:49;;;;;;;14.68;8.32;;;;;;;;;;4955256;29;20051;-60
2022/04/09 08:07:16;;;;;;;12.55;7.70;;;;;;;;;;4955680;29;20059;-59
2022/04/09 08:09:44;;;;;;;13.35;7.88;;;;;;;;;;4955639;29;20059;-61
2022/04/09 08:12:13;;;;;;;13.73;8.73;;;;;;;;;;4955282;29;20122;-60
2022/04/09 08:14:40;;;;;;;11.35;7.07;;;;;;;;;;4955450;29;20106;-60
2022/04/09 08:17:08;;;;;;;13.30;7.72;;;;;;;;;;4955110;28;20055;-60
2022/04/09 08:19:35;;;;;;;16.05;8.02;;;;;;;;;;4955337;29;20054;-62
2022/04/09 08:22:02;;;;;;;15.52;7.70;;;;;;;;;;4955293;29;20055;-61
2022/04/09 08:24:29;;;;;;;13.32;7.15;;;;;;;;;;4955504;29;20055;-61
2022/04/09 08:26:56;;;;;;;12.10;7.10;;;;;;;;;;4955303;29;20240;-58
2022/04/09 08:29:24;;;;;;;11.40;7.15;;;;;;;;;;4955148;29;20062;-62
2022/04/09 08:31:52;;;;;;;13.40;7.93;;;;;;;;;;4954871;29;20075;-61
2022/04/09 08:34:21;;;;;;;9.68;5.68;;;;;;;;;;4955236;29;20058;-64
2022/04/09 08:36:49;;;;;;;10.00;4.90;;;;;;;;;;4955378;29;20047;-63
2022/04/09 08:39:16;;;;;;;9.85;5.82;;;;;;;;;;4955395;29;20134;-65
2022/04/09 08:41:44;;;;;;;9.82;5.40;;;;;;;;;;4955293;29;20059;-64
2022/04/09 08:44:12;;;;;;;10.63;5.68;;;;;;;;;;4955843;29;20086;-70
2022/04/09 08:46:40;;;;;;;9.13;4.57;;;;;;;;;;4973207;28;20082;-66
2022/04/09 08:49:08;;;;;;;8.07;4.22;;;;;;;;;;4974239;28;20057;-60
2022/04/09 08:51:38;;;;;;;7.35;4.28;;;;;;;;;;4974942;28;20070;-61
2022/04/09 08:54:05;;;;;;;12.88;6.65;;;;;;;;;;4974033;28;20384;-59
2022/04/09 08:56:34;;;;;;;7.55;4.25;;;;;;;;;;4974037;28;20476;-61
2022/04/09 08:59:01;;;;;;;7.70;3.95;;;;;;;;;;4975077;28;20142;-61
2022/04/09 09:01:29;;;;;;;8.25;4.28;;;;;;;;;;4974306;28;20055;-60
2022/04/09 09:03:57;;;;;;;7.97;4.75;;;;;;;;;;4974023;28;20468;-60
2022/04/09 09:06:27;;;;;;;9.25;5.03;;;;;;;;;;4974101;28;20062;-60
2022/04/09 09:08:56;;;;;;;8.75;4.30;;;;;;;;;;4973502;28;20055;-61
2022/04/09 09:11:23;;;;;;;11.23;5.65;;;;;;;;;;4974032;28;20051;-61
2022/04/09 09:13:52;;;;;;;7.57;3.97;;;;;;;;;;4973715;28;20113;-61
2022/04/09 09:16:25;;;;;;;6.00;3.20;;;;;;;;;;4973801;28;20046;-61
2022/04/09 09:18:53;;;;;;;11.88;4.97;;;;;;;;;;4974006;28;20055;-60
2022/04/09 09:21:23;;;;;;;6.47;3.88;;;;;;;;;;4973832;28;20138;-61
2022/04/09 09:23:51;;;;;;;7.30;3.87;;;;;;;;;;4974081;28;20053;-61
2022/04/09 09:26:22;;;;;;;4.97;3.10;;;;;;;;;;4973914;28;20051;-61
2022/04/09 09:28:57;;;;;;;6.63;3.38;;;;;;;;;;4974876;28;20077;-61
2022/04/09 09:31:41;;;;;;;7.65;3.75;;;;;;;;;;4977662;28;20047;-61
2022/04/09 09:34:09;;;;;;;8.05;3.83;;;;;;;;;;4977827;28;20066;-60
2022/04/09 09:36:38;;;;;;;5.90;3.55;;;;;;;;;;4977343;28;20447;-62
2022/04/09 09:39:07;;;;;;;7.82;3.97;;;;;;;;;;4977237;28;20411;-62
2022/04/09 09:41:35;;;;;;;8.85;4.57;;;;;;;;;;4977837;28;20077;-62
2022/04/09 09:44:04;;;;;;;9.25;5.07;;;;;;;;;;4977720;28;20058;-60
2022/04/09 09:46:31;;;;;;;8.52;5.18;;;;;;;;;;4960664;28;20475;-60
2022/04/09 09:48:59;;;;;;;9.90;5.80;;;;;;;;;;4958059;29;20057;-61
2022/04/09 09:51:27;;;;;;;8.13;4.30;;;;;;;;;;4958359;29;20059;-61
2022/04/09 09:54:04;;;;;;;7.68;4.30;;;;;;;;;;4958186;29;20098;-60
2022/04/09 09:56:37;;;;;;;7.22;4.43;;;;;;;;;;4958504;29;20055;-61
2022/04/09 09:59:08;;;;;;;7.10;4.05;;;;;;;;;;4958405;29;20058;-62
2022/04/09 10:01:37;;;;;;;13.02;4.97;;;;;;;;;;4958196;29;20150;-62
2022/04/09 10:04:05;;;;;;;8.05;4.25;;;;;;;;;;4957707;29;20114;-62
2022/04/09 10:06:34;;;;;;;7.28;4.13;;;;;;;;;;4957573;29;20058;-60
2022/04/09 10:09:03;;;;;;;7.20;4.68;;;;;;;;;;4957426;29;20485;-61
2022/04/09 10:11:30;;;;;;;8.05;4.85;;;;;;;;;;4957583;29;20090;-60
2022/04/09 10:14:03;;;;;;;9.10;4.72;;;;;;;;;;4957613;29;20057;-60
2022/04/09 10:16:31;;;;;;;7.55;4.05;;;;;;;;;;4956646;29;20055;-59
2022/04/09 10:19:01;;;;;;;7.82;3.80;;;;;;;;;;4956686;29;20515;-61
2022/04/09 10:21:29;;;;;;;6.20;3.85;;;;;;;;;;4957205;29;20066;-60
2022/04/09 10:23:58;;;;;;;8.00;4.18;;;;;;;;;;4958034;29;20465;-60
2022/04/09 10:26:27;;;;;;;8.85;4.28;;;;;;;;;;4957559;29;20055;-60
2022/04/09 10:29:07;;;;;;;6.25;3.75;;;;;;;;;;4957076;29;20051;-61
2022/04/09 10:31:39;;;;;;;6.18;3.42;;;;;;;;;;4957275;29;20106;-61
2022/04/09 10:34:07;;;;;;;7.78;3.60;;;;;;;;;;4957433;29;20055;-60
2022/04/09 10:37:05;;;;;;;7.57;3.97;;;;;;;;;;4957225;29;20051;-60
2022/04/09 10:39:45;;;;;;;5.68;3.05;;;;;;;;;;4956641;28;20065;-60
2022/04/09 10:42:49;;;;;;;7.93;4.13;;;;;;;;;;4959377;29;20055;-60
2022/04/09 10:45:18;;;;;;;7.90;4.78;;;;;;;;;;4960842;28;20047;-60
2022/04/09 10:48:07;;;;;;;11.32;4.80;;;;;;;;;;4959781;29;20051;-61
2022/04/09 10:51:01;;;;;;;16.25;7.97;;;;;;;;;;4959807;29;20063;-60
2022/04/09 10:53:30;;;;;;;10.02;4.95;;;;;;;;;;4957846;28;20058;-62
2022/04/09 10:56:13;;;;;;;8.90;4.85;;;;;;;;;;4960362;29;20047;-61
2022/04/09 10:59:06;;;;;;;9.38;4.22;;;;;;;;;;4960737;29;20065;-61
2022/04/09 11:01:56;;;;;;;7.90;4.47;;;;;;;;;;4959886;29;20087;-63
2022/04/09 11:04:47;;;;;;;5.60;3.28;;;;;;;;;;4959903;29;20453;-61
2022/04/09 11:07:18;;;;;;;5.28;3.30;;;;;;;;;;4960934;29;20106;-62
2022/04/09 11:09:46;;;;;;;;;;;;;;;;;;4960457;29;20130;-62
2022/04/09 11:12:14;;;;;;;7.43;3.70;;;;;;;;;;4959511;28;20307;-62
2022/04/09 11:14:51;;;;;;;6.97;3.40;;;;;;;;;;4959788;29;20051;-61
2022/04/09 11:17:30;;;;;;;6.80;3.38;;;;;;;;;;4959286;29;20059;-62
2022/04/09 11:20:02;;;;;;;10.18;3.80;;;;;;;;;;4959614;29;20058;-62
2022/04/09 11:22:34;;;;;;;8.27;4.05;;;;;;;;;;4959602;29;20063;-62
2022/04/09 11:25:01;;;;;;;7.32;3.30;;;;;;;;;;4959320;29;20051;-62
2022/04/09 11:27:28;;;;;;;7.50;3.42;;;;;;;;;;4959383;29;20062;-62
2022/04/09 11:29:56;;;;;;;6.72;3.88;;;;;;;;;;4959654;28;20429;-61
2022/04/09 11:32:24;;;;;;;8.10;3.38;;;;;;;;;;4959260;29;20051;-62
2022/04/09 11:34:54;;;;;;;7.60;3.95;;;;;;;;;;4959335;29;20047;-62
2022/04/09 11:37:23;;;;;;;9.50;4.05;;;;;;;;;;4958887;29;20094;-62
2022/04/09 11:39:52;;;;;;;8.43;4.20;;;;;;;;;;4959762;29;20065;-62
2022/04/09 11:42:19;;;;;;;9.48;4.00;;;;;;;;;;4959138;29;20051;-61
2022/04/09 11:44:46;;;;;;;6.45;3.67;;;;;;;;;;4958423;29;20055;-61
2022/04/09 11:47:16;;;;;;;7.93;3.83;;;;;;;;;;4959692;29;20061;-62
2022/04/09 11:49:44;;;;;;;5.95;3.08;;;;;;;;;;4959001;29;20059;-62
2022/04/09 11:52:13;;;;;;;6.35;3.30;;;;;;;;;;4958757;28;20135;-63
2022/04/09 11:54:43;;;;;;;7.80;3.25;;;;;;;;;;4958782;29;20126;-61
2022/04/09 11:57:13;;;;;;;7.40;3.00;;;;;;;;;;4957966;29;20051;-63
2022/04/09 11:59:41;;;;;;;6.28;3.25;;;;;;;;;;4958305;29;20059;-62
2022/04/09 12:02:24;;;;;;;6.88;3.20;;;;;;;;;;4958373;29;20059;-62
2022/04/09 12:04:52;;;;;;;9.18;3.83;;;;;;;;;;4958815;29;20054;-62
2022/04/09 12:07:21;;;;;;;8.95;4.88;;;;;;;;;;4957873;29;20047;-60
2022/04/09 12:09:48;;;;;;;7.00;3.90;;;;;;;;;;4958215;29;20047;-63
2022/04/09 12:12:19;;;;;;;8.18;3.80;;;;;;;;;;4958107;29;20051;-61
2022/04/09 12:14:53;;;;;;;7.65;3.28;;;;;;;;;;4957680;29;20461;-61
2022/04/09 12:17:22;;;;;;;6.80;3.30;;;;;;;;;;4957349;29;20058;-62
2022/04/09 12:19:50;;;;;;;9.35;3.10;;;;;;;;;;4957054;29;20055;-61
2022/04/09 12:22:22;;;;;;;8.98;3.58;;;;;;;;;;4957554;29;20070;-63
2022/04/09 12:24:53;;;;;;;9.18;4.00;;;;;;;;;;4957184;29;20150;-61
2022/04/09 12:27:22;;;;;;;6.22;3.05;;;;;;;;;;4957728;29;20051;-62
2022/04/09 12:29:54;;;;;;;11.20;4.75;;;;;;;;;;4958065;29;20051;-61
2022/04/09 12:32:24;;;;;;;9.63;4.60;;;;;;;;;;4957842;29;20461;-61
2022/04/09 12:34:59;;;;;;;5.60;3.40;;;;;;;;;;4957477;29;20456;-61
2022/04/09 12:37:27;;;;;;;7.68;3.45;;;;;;;;;;4957419;29;20282;-61
2022/04/09 12:40:14;;;;;;;10.88;4.30;;;;;;;;;;4957601;29;20056;-61
2022/04/09 12:42:42;;;;;;;9.13;3.42;;;;;;;;;;4957548;29;20142;-61
2022/04/09 12:45:16;;;;;;;9.32;3.72;;;;;;;;;;4956933;28;20055;-62
2022/04/09 12:47:53;;;;;;;8.30;3.75;;;;;;;;;;4957627;29;20090;-62
2022/04/09 12:50:21;;;;;;;8.38;4.00;;;;;;;;;;4956695;29;20091;-63
2022/04/09 12:52:49;;;;;;;9.25;4.03;;;;;;;;;;4956446;29;20062;-61
2022/04/09 12:55:18;;;;;;;8.02;3.25;;;;;;;;;;4956315;29;20047;-63
2022/04/09 12:57:45;;;;;;;7.38;3.30;;;;;;;;;;4955842;29;20054;-62
2022/04/09 13:00:13;;;;;;;7.20;3.25;;;;;;;;;;4955755;29;20051;-62
2022/04/09 13:02:42;;;;;;;12.45;3.80;;;;;;;;;;4956089;28;20051;-63
2022/04/09 13:05:10;;;;;;;9.80;3.53;;;;;;;;;;4956072;29;20058;-61
2022/04/09 13:07:37;;;;;;;7.57;3.65;;;;;;;;;;4956616;29;20481;-63
2022/04/09 13:10:06;;;;;;;8.35;4.13;;;;;;;;;;4956215;29;20055;-63
2022/04/09 13:12:33;;;;;;;9.18;4.68;;;;;;;;;;4956181;29;20047;-61
2022/04/09 13:15:00;;;;;;;9.55;4.35;;;;;;;;;;4956062;29;20131;-61
2022/04/09 13:17:28;;;;;;;9.50;4.72;;;;;;;;;;4955703;29;20054;-61
2022/04/09 13:19:56;;;;;;;10.70;4.50;;;;;;;;;;4955379;29;20047;-61
2022/04/09 13:22:23;;;;;;;21.15;7.95;;;;;;;;;;4956211;29;20055;-61
2022/04/09 13:24:50;;;;;;;9.35;4.32;;;;;;;;;;4955841;29;20115;-61
2022/04/09 13:27:18;;;;;;;10.68;4.75;;;;;;;;;;4955747;29;20052;-61
2022/04/09 13:29:45;;;;;;;10.57;3.55;;;;;;;;;;4955527;29;20054;-61
2022/04/09 13:32:13;;;;;;;10.77;4.25;;;;;;;;;;4955434;29;20058;-60
2022/04/09 13:34:40;;;;;;;7.00;3.55;;;;;;;;;;4954871;29;20090;-61
2022/04/09 13:37:07;;;;;;;9.45;3.40;;;;;;;;;;4955108;29;20055;-61
2022/04/09 13:39:33;;;;;;;9.27;3.60;;;;;;;;;;4955504;29;20605;-61
2022/04/09 13:42:01;;;;;;;7.97;3.10;;;;;;;;;;4955063;29;20065;-61
2022/04/09 13:44:30;;;;;;;8.20;3.40;;;;;;;;;;4955871;28;20051;-62
2022/04/09 13:46:57;;;;;;;7.50;3.20;;;;;;;;;;4956065;29;20126;-62
2022/04/09 13:49:24;;;;;;;7.65;3.60;;;;;;;;;;4956321;29;20073;-62
2022/04/09 13:51:50;;;;;;;11.02;4.45;;;;;;;;;;4956165;29;20183;-60
2022/04/09 13:54:17;;;;;;;13.27;4.45;;;;;;;;;;4955882;29;20043;-62
2022/04/09 13:56:44;;;;;;;9.52;4.15;;;;;;;;;;4955566;29;20047;-62
2022/04/09 13:59:11;;;;;;;13.40;3.83;;;;;;;;;;4955016;29;20515;-61
2022/04/09 14:01:40;;;;;;;10.32;2.90;;;;;;;;;;4955622;29;20051;-62
2022/04/09 14:04:07;;;;;;;6.75;2.90;;;;;;;;;;4955196;29;20098;-61
2022/04/09 14:06:34;;;;;;;7.53;3.75;;;;;;;;;;4955132;29;20047;-62
2022/04/09 14:09:01;;;;;;;7.60;3.28;;;;;;;;;;4955036;29;20077;-62
2022/04/09 14:11:29;;;;;;;8.63;3.42;;;;;;;;;;4956140;29;20135;-62
2022/04/09 14:13:56;;;;;;;9.82;3.92;;;;;;;;;;4955707;28;20055;-60
2022/04/09 14:16:23;;;;;;;9.52;3.45;;;;;;;;;;4959134;29;20066;-62
2022/04/09 14:18:51;;;;;;;8.45;3.35;;;;;;;;;;4959232;29;20051;-62
2022/04/09 14:21:19;;;;;;;8.75;3.85;;;;;;;;;;4959146;29;20082;-62
2022/04/09 14:23:46;;;;;;;10.80;4.45;;;;;;;;;;4958613;28;20075;-60
2022/04/09 14:26:13;;;;;;;10.15;3.55;;;;;;;;;;4958530;29;20407;-62
2022/04/09 14:28:40;;;;;;;10.40;4.00;;;;;;;;;;4957861;29;20062;-60
2022/04/09 14:31:07;;;;;;;8.32;4.00;;;;;;;;;;4958493;29;20106;-61
2022/04/09 14:33:34;;;;;;;7.82;3.78;;;;;;;;;;4958039;29;20449;-60
2022/04/09 14:36:03;;;;;;;6.93;3.75;;;;;;;;;;4958399;29;20122;-61
2022/04/09 14:38:31;;;;;;;10.85;3.90;;;;;;;;;;4958330;28;20193;-62
2022/04/09 14:40:58;;;;;;;8.68;3.88;;;;;;;;;;4958330;29;20051;-61
2022/04/09 14:43:25;;;;;;;11.15;3.60;;;;;;;;;;4958574;29;20417;-62
2022/04/09 14:45:52;;;;;;;11.75;4.30;;;;;;;;;;4958016;29;20079;-61
2022/04/09 14:48:20;;;;;;;11.68;4.75;;;;;;;;;;4958078;29;20051;-63